Time;durP1;ratioP1;P1;durP2;ratioP2;P2;SDS_P1;SDS_P2;PMS_P1;PMS_P2;Temp;Humidity;BMP_temperature;BMP_pressure;BME280_temperature;BME280_humidity;BME280_pressure;Samples;Min_cycle;Max_cycle;Signal;HPM_P1;HPM_P2
2021/04/06 00:01:59;;;;;;;4.72;1.40;;;22.50;28.80;;;;;;6217270;28;80446;-66
2021/04/06 00:05:00;;;;;;;1.80;1.27;;;22.50;28.80;;;;;;6212787;27;82369;-67
2021/04/06 00:08:00;;;;;;;2.65;1.35;;;22.50;28.80;;;;;;6190631;27;80528;-67
2021/04/06 00:11:01;;;;;;;1.20;1.05;;;22.50;28.80;;;;;;6193474;27;81474;-67
2021/04/06 00:14:01;;;;;;;1.95;1.25;;;22.50;28.80;;;;;;6197789;28;80572;-66
2021/04/06 00:17:02;;;;;;;2.55;1.42;;;22.50;28.60;;;;;;6198094;28;81357;-67
2021/04/06 00:20:02;;;;;;;1.40;1.13;;;22.50;28.80;;;;;;6193212;28;80387;-66
2021/04/06 00:23:03;;;;;;;1.92;1.08;;;22.50;29.10;;;;;;6192654;28;81503;-66
2021/04/06 00:26:03;;;;;;;1.92;1.27;;;22.50;29.40;;;;;;6183874;27;81570;-66
2021/04/06 00:29:04;;;;;;;1.58;1.17;;;22.40;28.60;;;;;;6198390;28;83329;-66
2021/04/06 00:32:04;;;;;;;1.77;1.23;;;22.40;28.70;;;;;;6183438;28;81567;-66
2021/04/06 00:35:05;;;;;;;1.38;1.17;;;22.40;29.10;;;;;;6191209;28;80873;-66
2021/04/06 00:38:05;;;;;;;1.20;1.10;;;22.40;28.90;;;;;;6200535;27;80815;-67
2021/04/06 00:41:06;;;;;;;1.38;1.10;;;22.40;28.80;;;;;;6198625;28;80811;-67
2021/04/06 00:44:06;;;;;;;1.50;1.10;;;22.40;28.40;;;;;;6207043;28;80584;-66
2021/04/06 00:47:07;;;;;;;1.95;1.25;;;22.40;29.00;;;;;;6220937;27;80693;-67
2021/04/06 00:50:07;;;;;;;2.03;1.10;;;22.40;28.90;;;;;;6204728;27;80672;-66
2021/04/06 00:53:09;;;;;;;1.92;1.30;;;22.40;28.90;;;;;;6210819;27;81161;-66
2021/04/06 00:56:09;;;;;;;1.83;1.30;;;22.40;29.00;;;;;;6211644;27;80625;-66
2021/04/06 00:59:10;;;;;;;1.80;1.15;;;22.40;28.90;;;;;;6226602;27;83115;-67
2021/04/06 01:02:10;;;;;;;3.95;1.20;;;22.40;28.60;;;;;;6200150;28;80289;-66
2021/04/06 01:05:11;;;;;;;3.70;1.42;;;22.40;28.70;;;;;;6220076;28;81177;-67
2021/04/06 01:08:11;;;;;;;2.05;1.20;;;22.40;28.50;;;;;;6203917;27;80364;-66
2021/04/06 01:11:12;;;;;;;1.88;1.20;;;22.40;28.70;;;;;;6201569;28;81729;-67
2021/04/06 01:14:12;;;;;;;2.75;1.30;;;22.40;28.60;;;;;;6198231;27;80838;-67
2021/04/06 01:17:13;;;;;;;3.33;1.55;;;22.40;28.60;;;;;;6199166;28;89145;-67
2021/04/06 01:20:16;;;;;;;2.38;1.30;;;22.40;28.70;;;;;;6200935;27;80416;-66
2021/04/06 01:23:18;;;;;;;2.60;1.48;;;22.40;28.40;;;;;;6211281;28;80872;-66
2021/04/06 01:26:18;;;;;;;2.30;1.17;;;22.40;28.50;;;;;;6202724;28;80991;-66
2021/04/06 01:29:19;;;;;;;2.72;1.40;;;22.40;28.70;;;;;;6200204;27;86019;-67
2021/04/06 01:32:19;;;;;;;2.75;1.33;;;22.40;28.60;;;;;;6201128;27;80993;-67
2021/04/06 01:35:20;;;;;;;1.70;1.20;;;22.40;28.50;;;;;;6200582;28;80637;-65
2021/04/06 01:38:22;;;;;;;1.65;1.20;;;22.40;28.50;;;;;;6199887;28;80679;-66
2021/04/06 01:41:23;;;;;;;2.35;1.35;;;22.40;28.40;;;;;;6207687;28;80816;-67
2021/04/06 01:44:23;;;;;;;2.28;1.60;;;22.40;28.50;;;;;;6208470;28;80853;-66
2021/04/06 01:47:25;;;;;;;1.83;1.50;;;22.40;28.60;;;;;;6195155;28;82091;-66
2021/04/06 01:50:26;;;;;;;1.63;1.38;;;22.40;28.80;;;;;;6239935;27;83208;-66
2021/04/06 01:53:26;;;;;;;3.10;1.52;;;22.40;28.80;;;;;;6208371;28;80468;-66
2021/04/06 01:56:29;;;;;;;2.22;1.80;;;22.40;28.60;;;;;;6210869;27;80996;-66
2021/04/06 01:59:34;;;;;;;1.67;1.27;;;22.40;28.80;;;;;;6225026;27;83476;-66
2021/04/06 02:02:37;;;;;;;2.38;1.63;;;22.40;28.80;;;;;;6210867;27;80996;-65
2021/04/06 02:05:38;;;;;;;2.50;1.55;;;22.40;28.80;;;;;;6204128;28;80206;-66
2021/04/06 02:08:38;;;;;;;3.35;1.55;;;22.40;29.20;;;;;;6205377;27;82566;-66
2021/04/06 02:11:39;;;;;;;2.72;1.90;;;22.30;28.60;;;;;;6208017;28;80869;-67
2021/04/06 02:14:40;;;;;;;2.70;1.60;;;22.40;28.80;;;;;;6209633;27;81170;-67
2021/04/06 02:17:40;;;;;;;2.80;1.90;;;22.40;28.70;;;;;;6213242;27;80510;-66
2021/04/06 02:20:40;;;;;;;4.20;1.55;;;22.40;28.60;;;;;;6223190;28;80732;-66
2021/04/06 02:23:41;;;;;;;4.28;2.35;;;22.40;28.50;;;;;;6216469;28;80404;-67
2021/04/06 02:26:41;;;;;;;2.67;1.70;;;22.40;28.60;;;;;;6216852;28;80856;-67
2021/04/06 02:29:42;;;;;;;4.32;1.83;;;22.40;28.70;;;;;;6204596;27;80463;-67
2021/04/06 02:32:43;;;;;;;3.35;2.22;;;22.40;29.20;;;;;;6203697;28;80719;-67
2021/04/06 02:35:43;;;;;;;3.88;1.70;;;22.40;28.80;;;;;;6196946;28;80226;-66
2021/04/06 02:38:44;;;;;;;3.30;1.90;;;22.40;28.80;;;;;;6201235;28;81612;-66
2021/04/06 02:41:44;;;;;;;2.63;2.00;;;22.40;29.00;;;;;;6196993;28;80800;-66
2021/04/06 02:44:45;;;;;;;2.63;2.20;;;22.40;28.60;;;;;;6200660;27;80695;-66
2021/04/06 02:47:45;;;;;;;2.60;1.90;;;22.40;28.60;;;;;;6200355;28;80564;-64
2021/04/06 02:50:46;;;;;;;3.05;1.80;;;22.40;29.00;;;;;;6199426;28;81703;-65
2021/04/06 02:53:46;;;;;;;4.15;2.15;;;22.40;28.30;;;;;;6201445;28;80826;-66
2021/04/06 02:56:47;;;;;;;3.45;1.83;;;22.40;28.50;;;;;;6204156;28;80402;-65
2021/04/06 02:59:47;;;;;;;2.55;1.80;;;22.40;28.40;;;;;;6212119;28;82136;-65
2021/04/06 03:02:48;;;;;;;2.15;1.60;;;22.40;28.50;;;;;;6214920;27;80284;-65
2021/04/06 03:05:48;;;;;;;3.13;1.85;;;22.40;28.70;;;;;;6214962;28;80913;-65
2021/04/06 03:08:49;;;;;;;2.38;1.70;;;22.40;28.70;;;;;;6218471;27;80529;-65
2021/04/06 03:11:49;;;;;;;2.95;1.80;;;22.40;28.50;;;;;;6208294;27;81343;-65
2021/04/06 03:14:50;;;;;;;2.22;1.60;;;22.40;29.10;;;;;;6216988;27;82114;-65
2021/04/06 03:17:52;;;;;;;5.10;2.60;;;22.40;28.80;;;;;;6192616;28;82325;-65
2021/04/06 03:20:52;;;;;;;3.97;2.25;;;22.40;28.20;;;;;;6189869;27;81780;-65
2021/04/06 03:23:53;;;;;;;2.80;1.90;;;22.50;28.00;;;;;;6189590;28;80564;-65
2021/04/06 03:26:53;;;;;;;3.70;2.17;;;22.40;27.90;;;;;;6194035;28;81535;-65
2021/04/06 03:29:54;;;;;;;4.10;2.28;;;22.40;27.90;;;;;;6217258;28;80547;-66
2021/04/06 03:32:54;;;;;;;2.67;1.90;;;22.50;27.80;;;;;;6194647;28;80319;-66
2021/04/06 03:35:55;;;;;;;4.85;2.55;;;22.50;27.70;;;;;;6195916;27;81682;-66
2021/04/06 03:38:55;;;;;;;4.00;2.00;;;22.60;27.70;;;;;;6204395;28;81363;-66
2021/04/06 03:41:56;;;;;;;3.35;1.88;;;22.60;27.70;;;;;;6199728;28;80678;-66
2021/04/06 03:44:56;;;;;;;4.55;2.13;;;22.60;27.70;;;;;;6199207;28;80772;-65
2021/04/06 03:47:57;;;;;;;2.67;2.13;;;22.70;27.80;;;;;;6206111;28;81576;-65
2021/04/06 03:50:58;;;;;;;2.45;2.00;;;22.70;28.30;;;;;;6198878;27;80686;-66
2021/04/06 03:53:58;;;;;;;4.47;2.38;;;22.70;27.80;;;;;;6196878;28;80266;-65
2021/04/06 03:57:00;;;;;;;4.72;2.17;;;22.70;27.80;;;;;;6219621;28;80677;-65
2021/04/06 04:00:00;;;;;;;3.83;2.00;;;22.80;27.80;;;;;;6218203;27;80560;-66
2021/04/06 04:03:01;;;;;;;6.55;2.53;;;22.80;27.80;;;;;;6224251;27;80346;-66
2021/04/06 04:06:01;;;;;;;4.60;2.30;;;22.80;28.20;;;;;;6199203;28;81384;-67
2021/04/06 04:09:02;;;;;;;3.50;2.20;;;22.80;27.70;;;;;;6196383;28;80628;-65
2021/04/06 04:12:02;;;;;;;4.13;2.47;;;22.80;27.60;;;;;;6188191;28;80459;-65
2021/04/06 04:15:03;;;;;;;5.05;2.35;;;22.90;27.70;;;;;;6194238;27;80625;-65
2021/04/06 04:18:03;;;;;;;4.22;2.95;;;22.80;27.90;;;;;;6188489;28;81252;-66
2021/04/06 04:21:04;;;;;;;6.25;3.00;;;22.90;28.20;;;;;;6209832;28;80640;-65
2021/04/06 04:24:04;;;;;;;4.97;2.58;;;22.90;28.30;;;;;;6174509;27;80645;-66
2021/04/06 04:27:05;;;;;;;8.68;3.22;;;22.90;28.20;;;;;;6197521;27;81350;-66
2021/04/06 04:30:06;;;;;;;4.85;2.60;;;22.90;28.20;;;;;;6176571;27;80659;-67
2021/04/06 04:33:06;;;;;;;5.07;2.38;;;22.90;28.30;;;;;;6200764;27;80510;-65
2021/04/06 04:36:07;;;;;;;4.65;2.70;;;22.90;28.40;;;;;;6171886;28;80473;-67
2021/04/06 04:39:07;;;;;;;5.28;2.38;;;23.00;28.60;;;;;;6195807;28;80345;-66
2021/04/06 04:42:08;;;;;;;7.03;2.80;;;23.00;28.40;;;;;;6213642;28;83273;-66
2021/04/06 04:45:08;;;;;;;4.32;2.38;;;23.10;28.30;;;;;;6194561;27;80885;-67
2021/04/06 04:48:09;;;;;;;4.45;2.45;;;23.00;28.10;;;;;;6200145;27;80839;-67
2021/04/06 04:51:09;;;;;;;5.30;2.67;;;23.10;28.00;;;;;;6201941;28;86240;-66
2021/04/06 04:54:10;;;;;;;5.43;2.97;;;23.00;27.80;;;;;;6193544;27;80691;-65
2021/04/06 04:57:10;;;;;;;5.40;2.50;;;23.00;27.70;;;;;;6195533;28;87788;-65
2021/04/06 05:00:11;;;;;;;7.32;2.75;;;23.10;27.60;;;;;;6199012;28;81555;-66
2021/04/06 05:03:11;;;;;;;7.45;2.58;;;23.10;27.70;;;;;;6197517;27;80672;-65
2021/04/06 05:06:12;;;;;;;4.43;2.30;;;23.10;27.80;;;;;;6192650;28;81551;-64
2021/04/06 05:09:12;;;;;;;4.72;2.55;;;23.10;27.70;;;;;;6190590;28;80595;-66
2021/04/06 05:12:13;;;;;;;3.83;2.72;;;23.10;28.00;;;;;;6198888;27;81115;-67
2021/04/06 05:15:14;;;;;;;5.75;2.60;;;23.20;28.00;;;;;;6191778;27;80669;-65
2021/04/06 05:18:14;;;;;;;6.55;3.30;;;23.20;28.40;;;;;;6212458;28;81024;-67
2021/04/06 05:21:15;;;;;;;8.23;3.30;;;23.20;28.40;;;;;;6221674;28;81167;-66
2021/04/06 05:24:15;;;;;;;4.20;2.72;;;23.20;28.30;;;;;;6208141;28;80558;-66
2021/04/06 05:27:16;;;;;;;5.10;2.70;;;23.20;28.30;;;;;;6187113;28;80606;-66
2021/04/06 05:30:16;;;;;;;5.97;2.50;;;23.30;28.50;;;;;;6201489;27;80410;-67
2021/04/06 05:33:17;;;;;;;4.85;2.45;;;23.30;28.20;;;;;;6193092;28;80204;-67
2021/04/06 05:36:17;;;;;;;4.22;2.47;;;23.30;28.20;;;;;;6206444;27;83270;-66
2021/04/06 05:39:18;;;;;;;6.25;3.13;;;23.30;28.20;;;;;;6207714;27;80607;-66
2021/04/06 05:42:18;;;;;;;3.53;2.15;;;23.30;29.20;;;;;;6211759;27;81596;-68
2021/04/06 05:45:19;;;;;;;9.48;2.80;;;23.30;29.60;;;;;;6217499;28;82940;-68
2021/04/06 05:48:20;;;;;;;6.30;2.50;;;23.40;29.80;;;;;;6219977;28;82727;-66
2021/04/06 05:51:20;;;;;;;6.38;3.22;;;23.40;30.00;;;;;;6218452;28;83871;-67
2021/04/06 05:54:21;;;;;;;5.00;3.22;;;23.40;30.10;;;;;;6223050;27;81797;-68
2021/04/06 05:57:21;;;;;;;5.95;2.85;;;23.40;30.20;;;;;;6202290;28;81577;-67
2021/04/06 06:00:22;;;;;;;8.02;3.88;;;23.40;30.00;;;;;;6210991;27;80372;-68
2021/04/06 06:03:22;;;;;;;7.70;2.97;;;23.50;30.40;;;;;;6200313;28;81453;-68
2021/04/06 06:06:23;;;;;;;6.20;2.78;;;23.50;30.60;;;;;;6200387;27;80544;-67
2021/04/06 06:09:23;;;;;;;7.53;3.35;;;23.50;30.70;;;;;;6202778;28;80862;-68
2021/04/06 06:12:24;;;;;;;5.88;2.85;;;23.50;30.80;;;;;;6201285;28;83509;-67
2021/04/06 06:15:25;;;;;;;8.40;3.13;;;23.50;30.80;;;;;;6212441;27;80589;-68
2021/04/06 06:18:25;;;;;;;7.63;2.88;;;23.50;30.80;;;;;;6192205;27;81281;-67
2021/04/06 06:21:26;;;;;;;6.90;2.50;;;23.50;30.60;;;;;;6197904;28;80751;-65
2021/04/06 06:24:26;;;;;;;6.88;3.17;;;23.50;31.00;;;;;;6198026;28;81720;-66
2021/04/06 06:27:48;;;;;;;11.65;2.95;;;23.50;30.50;;;;;;6199633;28;80632;-64
2021/04/06 06:30:47;;;;;;;7.13;3.40;;;23.50;30.30;;;;;;6194006;28;80582;-64
2021/04/06 06:33:48;;;;;;;5.50;2.72;;;23.50;30.00;;;;;;6222307;28;83518;-64
2021/04/06 06:36:48;;;;;;;4.38;2.75;;;23.50;29.80;;;;;;6221040;28;80586;-66
2021/04/06 06:39:49;;;;;;;9.02;3.35;;;23.50;29.60;;;;;;6201267;27;87757;-64
2021/04/06 06:42:50;;;;;;;8.23;3.58;;;23.40;29.50;;;;;;6198930;27;80931;-68
2021/04/06 06:45:50;;;;;;;5.90;3.08;;;23.40;29.50;;;;;;6198535;28;84788;-65
2021/04/06 06:48:51;;;;;;;10.10;3.22;;;23.40;29.40;;;;;;6190321;28;82263;-68
2021/04/06 06:51:52;;;;;;;6.07;2.83;;;23.50;29.40;;;;;;6197556;28;80888;-68
2021/04/06 06:54:55;;;;;;;7.07;3.35;;;23.50;31.20;;;;;;6203146;28;81251;-66
2021/04/06 06:57:56;;;;;;;6.75;3.10;;;23.40;31.90;;;;;;6222787;28;80715;-68
2021/04/06 07:00:56;;;;;;;6.05;3.10;;;23.40;30.30;;;;;;6200915;27;81428;-67
2021/04/06 07:03:57;;;;;;;11.27;3.42;;;23.30;30.00;;;;;;6196642;28;80777;-66
2021/04/06 07:06:57;;;;;;;6.90;3.47;;;23.30;30.10;;;;;;6192610;28;83348;-68
2021/04/06 07:09:58;;;;;;;8.77;4.22;;;23.30;29.90;;;;;;6197579;28;81766;-68
2021/04/06 07:12:58;;;;;;;9.40;4.53;;;23.30;30.10;;;;;;6196066;28;80925;-68
2021/04/06 07:15:59;;;;;;;7.78;4.30;;;23.30;30.00;;;;;;6198131;27;81986;-70
2021/04/06 07:19:02;;;;;;;9.98;4.07;;;23.30;30.50;;;;;;6198674;28;80467;-69
2021/04/06 07:22:02;;;;;;;8.55;3.50;;;23.30;29.60;;;;;;6200293;28;81041;-69
2021/04/06 07:25:03;;;;;;;13.00;4.00;;;23.30;30.90;;;;;;6201260;27;81528;-68
2021/04/06 07:28:03;;;;;;;11.40;4.32;;;23.30;29.80;;;;;;6192539;28;81184;-69
2021/04/06 07:31:04;;;;;;;9.27;4.20;;;23.20;29.10;;;;;;6195362;28;84166;-68
2021/04/06 07:34:04;;;;;;;8.55;4.00;;;23.20;28.80;;;;;;6235433;27;81224;-69
2021/04/06 07:37:05;;;;;;;8.38;4.35;;;23.20;28.30;;;;;;6201218;28;80686;-68
2021/04/06 07:40:08;;;;;;;10.00;4.22;;;23.20;29.70;;;;;;6208508;27;80968;-68
2021/04/06 07:43:09;;;;;;;37.95;6.68;;;23.20;28.70;;;;;;6201360;27;87689;-68
2021/04/06 07:46:09;;;;;;;36.25;10.13;;;23.20;29.30;;;;;;6201749;27;81177;-69
2021/04/06 07:49:10;;;;;;;31.65;9.85;;;23.30;30.70;;;;;;6194952;28;84375;-67
2021/04/06 07:52:10;;;;;;;56.53;17.77;;;23.30;30.80;;;;;;6195542;27;83084;-68
2021/04/06 07:55:11;;;;;;;68.55;18.75;;;23.30;32.00;;;;;;6189057;27;83302;-68
2021/04/06 07:58:11;;;;;;;60.55;17.17;;;23.30;30.00;;;;;;6179013;27;84053;-70
2021/04/06 08:01:12;;;;;;;61.90;19.90;;;23.30;30.10;;;;;;6178886;28;83617;-68
2021/04/06 08:04:13;;;;;;;43.78;14.80;;;23.30;31.80;;;;;;6200772;28;83513;-69
2021/04/06 08:07:14;;;;;;;51.47;16.50;;;23.30;29.70;;;;;;6195987;28;83605;-70
2021/04/06 08:10:14;;;;;;;59.22;17.02;;;23.30;30.70;;;;;;6226102;27;84818;-68
2021/04/06 08:13:15;;;;;;;43.30;14.07;;;23.30;31.80;;;;;;6197587;28;84287;-70
2021/04/06 08:16:16;;;;;;;44.90;13.90;;;23.30;30.40;;;;;;6194830;27;83143;-69
2021/04/06 08:19:16;;;;;;;42.33;13.85;;;23.30;30.60;;;;;;6189262;28;86127;-69
2021/04/06 08:22:17;;;;;;;36.25;12.68;;;23.20;30.90;;;;;;6189003;27;83400;-69
2021/04/06 08:25:17;;;;;;;31.88;11.98;;;23.20;30.70;;;;;;6191788;28;83036;-69
2021/04/06 08:28:18;;;;;;;25.70;10.77;;;23.20;30.90;;;;;;6194923;27;83797;-69
2021/04/06 08:31:19;;;;;;;30.20;9.65;;;23.30;30.30;;;;;;6200801;28;84069;-70
2021/04/06 08:34:19;;;;;;;25.35;9.90;;;23.20;30.10;;;;;;6207348;28;81819;-69
2021/04/06 08:37:20;;;;;;;26.52;9.25;;;23.20;28.40;;;;;;6217560;28;80830;-69
2021/04/06 08:40:20;;;;;;;20.15;8.05;;;23.20;28.50;;;;;;6219216;28;80388;-70
2021/04/06 08:43:21;;;;;;;19.70;8.50;;;23.20;28.00;;;;;;6208869;28;83187;-69
2021/04/06 08:46:21;;;;;;;22.00;6.78;;;23.30;28.80;;;;;;6196425;28;80836;-69
2021/04/06 08:49:23;;;;;;;26.50;7.05;;;23.20;27.80;;;;;;6194467;27;81432;-69
2021/04/06 08:52:24;;;;;;;15.85;6.30;;;23.20;27.70;;;;;;6197346;27;80601;-69
2021/04/06 08:55:24;;;;;;;13.52;5.78;;;23.20;27.50;;;;;;6200877;28;80547;-69
2021/04/06 08:58:25;;;;;;;14.82;6.05;;;23.20;27.60;;;;;;6204832;27;80648;-69
2021/04/06 09:01:25;;;;;;;15.10;6.50;;;23.20;27.50;;;;;;6194385;28;80905;-71
2021/04/06 09:04:26;;;;;;;14.32;6.15;;;23.20;27.50;;;;;;6197811;27;80796;-71
2021/04/06 09:07:26;;;;;;;17.48;6.63;;;23.20;27.20;;;;;;6203235;27;81005;-71
2021/04/06 09:10:28;;;;;;;15.77;5.22;;;23.20;27.10;;;;;;6198616;28;81076;-71
2021/04/06 09:13:28;;;;;;;13.07;5.85;;;23.20;27.20;;;;;;6196822;28;81365;-70
2021/04/06 09:16:29;;;;;;;14.18;5.93;;;23.20;27.00;;;;;;6205734;27;81213;-70
2021/04/06 09:19:29;;;;;;;12.15;4.72;;;23.20;27.80;;;;;;6199881;28;82666;-70
2021/04/06 09:22:30;;;;;;;10.30;5.05;;;23.30;28.60;;;;;;6190507;27;81633;-68
2021/04/06 09:25:31;;;;;;;16.88;5.55;;;23.30;28.10;;;;;;6221151;27;81318;-69
2021/04/06 09:28:31;;;;;;;10.00;4.45;;;23.30;28.70;;;;;;6189296;28;81928;-67
2021/04/06 09:31:32;;;;;;;13.05;4.68;;;23.30;28.30;;;;;;6206832;28;80947;-68
2021/04/06 09:34:32;;;;;;;12.73;5.00;;;23.30;29.50;;;;;;6185522;28;80607;-67
2021/04/06 09:37:33;;;;;;;13.02;5.22;;;23.40;30.40;;;;;;6197882;28;81651;-67
2021/04/06 09:40:33;;;;;;;11.43;5.10;;;23.40;32.60;;;;;;6202230;28;80603;-67
2021/04/06 09:43:34;;;;;;;10.85;4.65;;;23.40;32.20;;;;;;6199671;28;84712;-67
2021/04/06 09:46:34;;;;;;;12.10;4.97;;;23.40;31.60;;;;;;6201661;28;80740;-65
2021/04/06 09:49:35;;;;;;;8.63;4.25;;;23.40;29.00;;;;;;6205102;28;80716;-65
2021/04/06 09:52:38;;;;;;;9.30;4.38;;;23.40;28.60;;;;;;6217653;27;81616;-64
2021/04/06 09:55:38;;;;;;;10.55;4.32;;;23.40;28.00;;;;;;6200219;27;81322;-65
2021/04/06 09:58:39;;;;;;;11.38;4.95;;;23.40;27.90;;;;;;6210148;28;81319;-65
2021/04/06 10:01:39;;;;;;;11.60;4.22;;;23.40;27.60;;;;;;6224910;28;80918;-66
2021/04/06 10:04:40;;;;;;;12.05;4.22;;;23.40;27.30;;;;;;6224890;28;80668;-67
2021/04/06 10:07:40;;;;;;;8.05;4.22;;;23.40;27.30;;;;;;6222559;27;81038;-67
2021/04/06 10:10:41;;;;;;;9.55;4.38;;;23.30;27.00;;;;;;6202305;27;80318;-68
2021/04/06 10:13:41;;;;;;;9.90;4.22;;;23.40;27.10;;;;;;6199662;28;80584;-67
2021/04/06 10:16:42;;;;;;;10.23;4.63;;;23.40;27.00;;;;;;6204039;28;80644;-67
2021/04/06 10:19:43;;;;;;;9.10;4.80;;;23.30;26.80;;;;;;6201418;28;80655;-66
2021/04/06 10:22:43;;;;;;;9.00;3.63;;;23.40;26.70;;;;;;6204733;28;81574;-69
2021/04/06 10:25:44;;;;;;;10.88;4.45;;;23.40;26.70;;;;;;6204306;27;81184;-69
2021/04/06 10:28:44;;;;;;;10.48;4.20;;;23.40;26.70;;;;;;6192841;27;81434;-69
2021/04/06 10:31:45;;;;;;;14.23;4.20;;;23.40;26.50;;;;;;6191700;28;82468;-69
2021/04/06 10:34:45;;;;;;;9.70;4.30;;;23.40;26.50;;;;;;6203065;27;83055;-68
2021/04/06 10:37:47;;;;;;;14.32;5.30;;;23.40;27.00;;;;;;6208317;27;80320;-70
2021/04/06 10:40:47;;;;;;;12.35;4.38;;;23.50;26.40;;;;;;6200021;27;81524;-69
2021/04/06 10:43:48;;;;;;;9.95;4.10;;;23.50;26.30;;;;;;6201532;27;80693;-69
2021/04/06 10:46:48;;;;;;;8.57;3.78;;;23.50;26.10;;;;;;6208994;28;80670;-69
2021/04/06 10:49:49;;;;;;;9.07;3.67;;;23.50;26.00;;;;;;6195009;28;80834;-69
2021/04/06 10:52:49;;;;;;;7.45;3.45;;;23.50;25.90;;;;;;6198025;28;81051;-71
2021/04/06 10:55:50;;;;;;;8.60;3.97;;;23.50;25.90;;;;;;6197299;27;80820;-68
2021/04/06 10:58:50;;;;;;;8.38;4.22;;;23.50;25.80;;;;;;6200968;28;80974;-69
2021/04/06 11:01:52;;;;;;;13.35;4.43;;;23.50;25.70;;;;;;6194936;28;86242;-67
2021/04/06 11:04:53;;;;;;;6.88;3.60;;;23.60;25.70;;;;;;6199866;28;80898;-68
2021/04/06 11:07:53;;;;;;;11.32;3.72;;;23.60;25.60;;;;;;6198809;28;80652;-69
2021/04/06 11:10:54;;;;;;;10.65;3.95;;;23.60;25.60;;;;;;6200778;28;81648;-66
2021/04/06 11:13:54;;;;;;;9.45;4.05;;;23.60;25.50;;;;;;6185993;27;81137;-66
2021/04/06 11:16:55;;;;;;;10.18;4.53;;;23.60;25.40;;;;;;6189422;28;81160;-66
2021/04/06 11:19:55;;;;;;;8.60;3.58;;;23.50;25.20;;;;;;6203329;27;81789;-66
2021/04/06 11:22:57;;;;;;;13.63;4.47;;;23.50;25.20;;;;;;6207299;27;80868;-66
2021/04/06 11:25:57;;;;;;;7.47;3.60;;;23.50;25.20;;;;;;6198974;28;80689;-69
2021/04/06 11:28:58;;;;;;;10.63;3.95;;;23.50;25.10;;;;;;6202327;28;81375;-68
2021/04/06 11:31:58;;;;;;;6.32;3.78;;;23.50;25.20;;;;;;6201641;27;80952;-67
2021/04/06 11:34:59;;;;;;;8.25;3.58;;;23.50;25.30;;;;;;6210941;28;83572;-68
2021/04/06 11:38:00;;;;;;;6.90;3.90;;;23.50;25.40;;;;;;6182984;27;81826;-67
2021/04/06 11:41:00;;;;;;;8.10;3.40;;;23.50;25.50;;;;;;6210498;27;80767;-67
2021/04/06 11:44:01;;;;;;;8.10;3.40;;;23.50;25.60;;;;;;6203635;27;80294;-67
2021/04/06 11:47:01;;;;;;;7.72;3.53;;;23.60;25.60;;;;;;6198631;27;81259;-67
2021/04/06 11:50:06;;;;;;;7.53;3.20;;;23.60;25.50;;;;;;6169683;27;81029;-67
2021/04/06 11:53:07;;;;;;;11.07;3.50;;;23.60;25.50;;;;;;6202360;28;81877;-67
2021/04/06 11:56:07;;;;;;;9.02;3.38;;;23.60;25.50;;;;;;6185356;27;81925;-67
2021/04/06 11:59:08;;;;;;;7.28;3.30;;;23.60;25.50;;;;;;6187341;27;80560;-67
2021/04/06 12:02:08;;;;;;;6.30;3.03;;;23.60;25.50;;;;;;6200022;28;80594;-66
2021/04/06 12:05:09;;;;;;;7.05;3.30;;;23.60;25.50;;;;;;6198684;27;80897;-68
2021/04/06 12:08:10;;;;;;;9.75;3.83;;;23.60;25.40;;;;;;6208454;27;85713;-67
2021/04/06 12:11:10;;;;;;;7.15;3.30;;;23.60;25.40;;;;;;6209194;27;81576;-67
2021/04/06 12:14:11;;;;;;;8.82;3.45;;;23.60;25.10;;;;;;6194952;27;80926;-66
2021/04/06 12:17:11;;;;;;;7.78;3.47;;;23.70;25.20;;;;;;6197883;27;80429;-67
2021/04/06 12:20:12;;;;;;;8.85;4.13;;;23.70;25.00;;;;;;6198827;28;80665;-67
2021/04/06 12:23:13;;;;;;;8.63;3.65;;;23.70;25.00;;;;;;6197492;27;80474;-68
2021/04/06 12:26:13;;;;;;;7.97;3.40;;;23.60;24.90;;;;;;6191985;28;81768;-67
2021/04/06 12:29:14;;;;;;;4.93;3.25;;;23.60;25.00;;;;;;6198791;28;81556;-67
2021/04/06 12:32:14;;;;;;;9.48;3.95;;;23.60;25.00;;;;;;6205724;28;80635;-67
2021/04/06 12:35:15;;;;;;;10.25;3.53;;;23.60;25.00;;;;;;6204039;27;84354;-68
2021/04/06 12:38:15;;;;;;;9.27;4.80;;;23.60;24.90;;;;;;6200301;28;82017;-67
2021/04/06 12:41:16;;;;;;;8.60;3.97;;;23.60;24.90;;;;;;6210026;27;80813;-67
2021/04/06 12:44:16;;;;;;;11.88;5.00;;;23.60;24.90;;;;;;6232937;27;80826;-67
2021/04/06 12:47:17;;;;;;;9.23;3.47;;;23.60;24.90;;;;;;6197150;28;81486;-67
2021/04/06 12:50:18;;;;;;;7.00;3.35;;;23.60;24.80;;;;;;6202477;27;80254;-68
2021/04/06 12:53:18;;;;;;;5.47;3.17;;;23.60;24.90;;;;;;6232605;27;82373;-67
2021/04/06 12:56:19;;;;;;;10.25;3.88;;;23.60;25.00;;;;;;6216935;28;80480;-66
2021/04/06 12:59:19;;;;;;;8.38;3.97;;;23.60;24.70;;;;;;6220551;28;82205;-68
2021/04/06 13:02:20;;;;;;;6.35;3.67;;;23.60;25.20;;;;;;6202631;28;86730;-68
2021/04/06 13:05:20;;;;;;;5.85;2.85;;;23.60;25.30;;;;;;6206866;28;80613;-69
2021/04/06 13:08:21;;;;;;;9.20;3.70;;;23.60;25.60;;;;;;6198105;28;80488;-67
2021/04/06 13:11:21;;;;;;;9.57;4.10;;;23.60;25.70;;;;;;6195678;28;80656;-68
2021/04/06 13:14:22;;;;;;;7.15;3.42;;;23.60;25.50;;;;;;6197183;27;80980;-67
2021/04/06 13:17:22;;;;;;;7.57;3.20;;;23.60;25.60;;;;;;6202000;28;80385;-65
2021/04/06 13:20:23;;;;;;;4.55;2.92;;;23.60;25.50;;;;;;6204923;27;80388;-65
2021/04/06 13:23:24;;;;;;;5.53;2.97;;;23.60;25.40;;;;;;6209230;27;80744;-67
2021/04/06 13:26:24;;;;;;;8.20;4.00;;;23.70;25.20;;;;;;6215870;28;80536;-70
2021/04/06 13:29:25;;;;;;;7.80;3.92;;;23.70;25.30;;;;;;6193279;28;87009;-69
2021/04/06 13:32:25;;;;;;;6.72;3.67;;;23.60;25.60;;;;;;6202194;28;80978;-70
2021/04/06 13:35:26;;;;;;;6.50;3.00;;;23.70;25.70;;;;;;6201117;28;80771;-68
2021/04/06 13:38:26;;;;;;;5.28;2.72;;;23.70;25.90;;;;;;6191665;28;81105;-67
2021/04/06 13:41:27;;;;;;;6.07;3.15;;;23.70;25.80;;;;;;6212268;28;80579;-71
2021/04/06 13:44:27;;;;;;;6.88;2.85;;;23.70;25.90;;;;;;6211859;27;80488;-67
2021/04/06 13:47:28;;;;;;;5.47;3.42;;;23.70;26.10;;;;;;6203240;27;80656;-69
2021/04/06 13:50:28;;;;;;;7.63;3.40;;;23.70;26.00;;;;;;6201657;27;80967;-68
2021/04/06 13:53:31;;;;;;;5.18;2.72;;;23.70;26.10;;;;;;6207089;28;80683;-67
2021/04/06 13:56:32;;;;;;;5.00;2.95;;;23.70;25.90;;;;;;6205936;27;80572;-68
2021/04/06 13:59:32;;;;;;;5.90;3.08;;;23.70;26.10;;;;;;6190609;28;80484;-68
2021/04/06 14:02:33;;;;;;;8.88;3.65;;;23.70;26.00;;;;;;6203150;27;81751;-68
2021/04/06 14:05:33;;;;;;;9.63;3.47;;;23.70;25.70;;;;;;6200587;27;81268;-69
2021/04/06 14:08:34;;;;;;;6.25;3.85;;;23.70;25.80;;;;;;6201558;28;80818;-68
2021/04/06 14:11:34;;;;;;;5.20;3.25;;;23.70;25.90;;;;;;6201033;27;80527;-68
2021/04/06 14:14:35;;;;;;;7.28;3.28;;;23.70;26.10;;;;;;6224045;27;80758;-69
2021/04/06 14:17:36;;;;;;;7.55;3.25;;;23.70;25.80;;;;;;6186775;27;81192;-69
2021/04/06 14:20:36;;;;;;;7.80;4.07;;;23.70;25.60;;;;;;6224393;27;80597;-68
2021/04/06 14:23:37;;;;;;;7.22;3.75;;;23.70;25.70;;;;;;6223442;28;80652;-72
2021/04/06 14:26:37;;;;;;;9.77;4.30;;;23.60;25.70;;;;;;6192720;28;81175;-70
2021/04/06 14:29:38;;;;;;;7.65;3.95;;;23.60;25.70;;;;;;6200395;28;80470;-69
2021/04/06 14:32:39;;;;;;;7.57;4.03;;;23.70;25.60;;;;;;6222710;28;81070;-68
2021/04/06 14:35:39;;;;;;;9.20;3.45;;;23.60;25.80;;;;;;6201198;27;80554;-68
2021/04/06 14:38:40;;;;;;;6.85;4.07;;;23.60;25.80;;;;;;6204011;28;82090;-67
2021/04/06 14:41:40;;;;;;;7.03;3.60;;;23.60;25.80;;;;;;6202306;28;80830;-67
2021/04/06 14:44:41;;;;;;;7.22;3.92;;;23.60;25.50;;;;;;6202122;28;81796;-68
2021/04/06 14:47:41;;;;;;;8.77;4.38;;;23.60;25.10;;;;;;6202042;27;80609;-69
2021/04/06 14:50:42;;;;;;;10.70;3.90;;;23.60;25.00;;;;;;6211860;27;81698;-67
2021/04/06 14:53:42;;;;;;;6.45;3.92;;;23.60;25.00;;;;;;6201539;28;81547;-68
2021/04/06 14:56:43;;;;;;;6.47;3.78;;;23.50;24.60;;;;;;6194699;28;82066;-69
2021/04/06 14:59:43;;;;;;;7.00;3.60;;;23.50;24.50;;;;;;6203502;28;80637;-69
2021/04/06 15:02:44;;;;;;;8.52;3.70;;;23.50;24.60;;;;;;6184903;27;80980;-69
2021/04/06 15:05:44;;;;;;;6.18;3.17;;;23.50;24.90;;;;;;6203580;27;80282;-68
2021/04/06 15:08:45;;;;;;;7.32;4.15;;;23.50;24.80;;;;;;6203736;28;80796;-69
2021/04/06 15:11:46;;;;;;;9.75;3.95;;;23.50;25.20;;;;;;6196372;28;82897;-69
2021/04/06 15:14:46;;;;;;;7.85;3.50;;;23.50;25.00;;;;;;6204827;28;81850;-69
2021/04/06 15:17:47;;;;;;;7.15;3.47;;;23.50;25.20;;;;;;6199984;28;81793;-71
2021/04/06 15:20:47;;;;;;;7.80;3.55;;;23.50;25.30;;;;;;6188697;28;81938;-69
2021/04/06 15:23:48;;;;;;;7.10;3.83;;;23.50;25.30;;;;;;6212305;27;80896;-68
2021/04/06 15:26:48;;;;;;;6.00;3.10;;;23.40;25.40;;;;;;6203912;28;80778;-70
2021/04/06 15:29:49;;;;;;;7.50;3.95;;;23.40;25.70;;;;;;6214238;27;81354;-67
2021/04/06 15:32:49;;;;;;;6.93;3.65;;;23.40;25.60;;;;;;6200141;28;80832;-66
2021/04/06 15:35:50;;;;;;;8.82;3.67;;;23.40;25.60;;;;;;6195222;28;83021;-69